Time;durP1;ratioP1;P1;durP2;ratioP2;P2;SDS_P1;SDS_P2;PMS_P1;PMS_P2;Temp;Humidity;BMP_temperature;BMP_pressure;BME280_temperature;BME280_humidity;BME280_pressure;Samples;Min_cycle;Max_cycle;Signal;HPM_P1;HPM_P2
2021/12/29 00:03:20;;;;;;;9.65;5.18;;;;;;;2.92;100.00;100623.22;10378103;28;20108;-79
2021/12/29 00:08:21;;;;;;;9.00;4.97;;;;;;;2.92;100.00;100633.72;10378261;28;20045;-80
2021/12/29 00:13:25;;;;;;;6.60;4.45;;;;;;;2.87;100.00;100634.09;10377312;28;20425;-79
2021/12/29 00:18:28;;;;;;;8.35;4.88;;;;;;;2.63;100.00;100594.72;10377509;28;20053;-79
2021/12/29 00:23:29;;;;;;;8.60;4.70;;;;;;;2.15;100.00;100544.00;10376221;28;20421;-81
2021/12/29 00:28:30;;;;;;;11.05;4.97;;;;;;;2.78;100.00;100645.22;10377363;28;20088;-80
2021/12/29 00:33:30;;;;;;;8.80;5.55;;;;;;;1.49;100.00;100447.31;10376950;28;20080;-81
2021/12/29 00:38:31;;;;;;;10.20;5.47;;;;;;;2.45;100.00;100588.16;10376486;28;20443;-82
2021/12/29 00:43:32;;;;;;;8.55;4.38;;;;;;;1.95;100.00;100503.50;10377107;28;20038;-80
2021/12/29 00:48:39;;;;;;;9.07;4.60;;;;;;;0.79;100.00;100311.78;10376156;28;20529;-82
2021/12/29 00:53:40;;;;;;;8.50;4.78;;;;;;;2.42;100.00;100591.00;10376598;28;20056;-81
2021/12/29 00:58:41;;;;;;;8.68;4.90;;;;;;;2.63;100.00;100622.72;10375878;28;20042;-81
2021/12/29 01:03:43;;;;;;;10.20;4.80;;;;;;;1.46;100.00;100437.06;10375732;28;20379;-81
2021/12/29 01:08:44;;;;;;;9.30;4.05;;;;;;;1.97;100.00;100519.94;10374665;28;20080;-80
2021/12/29 01:13:48;;;;;;;8.05;4.40;;;;;;;2.09;100.00;100518.22;10374640;28;20522;-81
2021/12/29 01:18:49;;;;;;;8.48;4.82;;;;;;;2.23;100.00;100566.09;10374479;28;20046;-79
2021/12/29 01:23:50;;;;;;;8.10;4.80;;;;;;;1.61;100.00;100479.66;10374910;28;20054;-81
2021/12/29 01:28:50;;;;;;;9.20;4.63;;;;;;;1.05;100.00;100414.63;10375566;28;20041;-80
2021/12/29 01:33:51;;;;;;;8.43;5.15;;;;;;;0.68;100.00;100338.66;10373554;28;20119;-81
2021/12/29 01:38:53;;;;;;;8.48;4.90;;;;;;;2.41;100.00;100639.16;10374247;28;20049;-80
2021/12/29 01:43:54;;;;;;;7.85;4.93;;;;;;;1.35;100.00;100465.78;10374114;28;20072;-79
2021/12/29 01:48:55;;;;;;;9.88;4.68;;;;;;;0.84;100.00;100388.16;10374236;28;20041;-81
2021/12/29 01:54:04;;;;;;;8.27;3.92;;;;;;;2.22;100.00;100609.00;10373074;28;20037;-79
2021/12/29 01:59:05;;;;;;;11.45;3.72;;;;;;;1.60;100.00;100515.50;10381412;28;20046;-78
2021/12/29 02:04:06;;;;;;;11.05;4.90;;;;;;;2.09;100.00;100621.25;10372490;28;20592;-80
2021/12/29 02:09:08;;;;;;;10.13;5.07;;;;;;;1.83;100.00;100568.06;10374376;28;20424;-81
2021/12/29 02:14:09;;;;;;;10.18;5.28;;;;;;;2.13;100.00;100624.53;10373748;28;20046;-80
2021/12/29 02:19:12;;;;;;;8.43;4.88;;;;;;;2.22;100.00;100660.56;10372625;28;20537;-81
2021/12/29 02:29:17;;;;;;;9.30;4.50;;;;;;;0.77;100.00;100422.66;10372546;28;20476;-80
2021/12/29 02:34:18;;;;;;;9.88;5.13;;;;;;;1.67;100.00;100572.66;10371871;28;20116;-81
2021/12/29 02:39:22;;;;;;;10.40;5.40;;;;;;;2.10;100.00;100640.47;10372560;28;20107;-80
2021/12/29 02:44:29;;;;;;;11.43;5.75;;;;;;;1.88;100.00;100622.75;10372697;28;20096;-80
2021/12/29 02:49:30;;;;;;;9.85;5.63;;;;;;;0.58;100.00;100409.97;10372176;28;20132;-80
2021/12/29 02:54:31;;;;;;;9.73;5.53;;;;;;;1.28;100.00;100532.56;10372826;28;20464;-81
2021/12/29 02:59:32;;;;;;;9.95;5.07;;;;;;;1.87;100.00;100629.78;10372070;28;20101;-80
2021/12/29 03:04:33;;;;;;;8.82;5.20;;;;;;;1.92;100.00;100642.56;10371646;28;20065;-81
2021/12/29 03:09:34;;;;;;;11.68;5.78;;;;;;;1.41;100.00;100563.97;10371789;28;20045;-81
2021/12/29 03:14:35;;;;;;;12.10;5.95;;;;;;;0.84;100.00;100460.53;10372851;28;20363;-81
2021/12/29 03:19:36;;;;;;;9.30;4.18;;;;;;;2.02;100.00;100654.09;10370340;28;20041;-79
2021/12/29 03:24:37;;;;;;;11.55;5.80;;;;;;;0.85;100.00;100483.97;10370595;28;20049;-81
2021/12/29 03:29:37;;;;;;;10.50;5.00;;;;;;;1.71;100.00;100622.13;10371585;28;20088;-81
2021/12/29 03:34:38;;;;;;;8.40;4.57;;;;;;;0.68;100.00;100445.84;10371820;28;20100;-81
2021/12/29 03:39:39;;;;;;;9.40;5.50;;;;;;;2.02;100.00;100691.59;10371452;28;20046;-81
2021/12/29 03:44:40;;;;;;;9.80;5.72;;;;;;;0.78;100.00;100474.00;10370800;28;20048;-81
2021/12/29 03:49:43;;;;;;;9.80;5.05;;;;;;;0.19;100.00;100380.31;10371139;28;20506;-82
2021/12/29 03:54:43;;;;;;;13.20;5.90;;;;;;;0.51;100.00;100432.22;10369697;28;20096;-82
2021/12/29 03:59:44;;;;;;;12.20;5.22;;;;;;;1.29;100.00;100558.63;10377533;28;20038;-81
2021/12/29 04:04:45;;;;;;;11.93;5.65;;;;;;;2.01;100.00;100692.56;10377741;28;20038;-80
2021/12/29 04:09:46;;;;;;;11.55;5.72;;;;;;;2.12;100.00;100697.03;10378637;28;20572;-79
2021/12/29 04:14:47;;;;;;;9.82;5.45;;;;;;;1.06;100.00;100525.31;10376471;28;20049;-82
2021/12/29 04:25:07;;;;;;;12.82;5.93;;;;;;;1.79;100.00;100668.75;10394900;28;20084;-76
2021/12/29 04:30:08;;;;;;;11.90;6.38;;;;;;;0.56;100.00;100457.13;10365516;28;20406;-79
2021/12/29 04:35:10;;;;;;;12.38;6.72;;;;;;;1.22;100.00;100552.13;10362677;28;20057;-75
2021/12/29 04:40:11;;;;;;;23.33;9.13;;;;;;;2.15;100.00;100704.69;10391957;28;20080;-84
2021/12/29 04:45:13;;;;;;;24.77;12.27;;;;;;;2.16;100.00;100719.50;10402625;28;20057;-83
2021/12/29 04:50:28;;;;;;;12.98;6.97;;;;;;;2.11;100.00;100734.69;10385626;28;20042;-77
2021/12/29 04:55:30;;;;;;;13.90;6.28;;;;;;;2.08;100.00;100721.78;10368359;28;20054;-80
2021/12/29 05:00:32;;;;;;;13.43;6.82;;;;;;;1.34;100.00;100636.84;10375458;28;20041;-80
2021/12/29 05:10:35;;;;;;;15.70;7.70;;;;;;;0.53;100.00;100504.38;10374747;28;20065;-80
2021/12/29 05:15:36;;;;;;;17.63;8.13;;;;;;;1.37;100.00;100654.97;10375834;28;20398;-79
2021/12/29 05:20:38;;;;;;;15.93;8.35;;;;;;;1.78;100.00;100738.63;10371986;28;20045;-80
2021/12/29 05:25:39;;;;;;;16.15;9.43;;;;;;;1.85;100.00;100754.78;10332652;28;20050;-81
2021/12/29 05:30:40;;;;;;;14.30;8.52;;;;;;;1.63;100.00;100695.13;10361534;28;20056;-78
2021/12/29 05:35:41;;;;;;;15.38;8.35;;;;;;;1.72;100.00;100709.41;10373983;28;20056;-79
2021/12/29 05:40:42;;;;;;;17.77;8.95;;;;;;;1.40;100.00;100672.25;10366772;28;20038;-80
2021/12/29 05:45:44;;;;;;;17.83;10.50;;;;;;;1.13;100.00;100633.84;10367372;28;20397;-80
2021/12/29 05:50:45;;;;;;;19.90;10.68;;;;;;;1.16;100.00;100606.66;10374079;28;20568;-79
2021/12/29 05:55:45;;;;;;;20.15;11.45;;;;;;;1.13;100.00;100597.22;10373089;28;20108;-79
2021/12/29 06:00:47;;;;;;;17.15;10.80;;;;;;;1.99;100.00;100735.53;10371309;28;20037;-80
2021/12/29 06:05:47;;;;;;;19.95;10.55;;;;;;;1.31;100.00;100616.09;10371794;28;20056;-80
2021/12/29 06:10:48;;;;;;;22.67;11.20;;;;;;;2.11;100.00;100739.94;10372485;28;20044;-80
2021/12/29 06:15:49;;;;;;;18.13;11.38;;;;;;;1.78;100.00;100686.25;10372592;28;20046;-79
2021/12/29 06:20:50;;;;;;;18.73;9.73;;;;;;;1.06;100.00;100583.72;10372693;28;20045;-79
2021/12/29 06:25:51;;;;;;;19.52;11.02;;;;;;;1.20;100.00;100606.38;10372796;28;20042;-80
2021/12/29 06:30:51;;;;;;;22.73;12.02;;;;;;;1.58;100.00;100640.44;10372306;28;20054;-80
2021/12/29 06:35:53;;;;;;;20.02;11.55;;;;;;;2.16;100.00;100744.88;10372712;28;20053;-79
2021/12/29 06:40:53;;;;;;;21.05;10.85;;;;;;;1.60;100.00;100680.47;10373076;28;20137;-78
2021/12/29 06:45:54;;;;;;;18.85;11.13;;;;;;;1.02;100.00;100565.72;10372453;28;20102;-79
2021/12/29 06:50:55;;;;;;;19.77;11.05;;;;;;;0.89;100.00;100535.13;10371772;28;20046;-80
2021/12/29 06:55:56;;;;;;;18.48;10.30;;;;;;;1.42;100.00;100634.56;10373513;28;20045;-79
2021/12/29 07:00:57;;;;;;;14.73;8.40;;;;;;;2.28;100.00;100734.38;10372191;28;20038;-78
2021/12/29 07:05:59;;;;;;;19.67;9.60;;;;;;;1.14;100.00;100567.53;10371944;28;20046;-79
2021/12/29 07:11:01;;;;;;;19.08;9.15;;;;;;;2.13;100.00;100704.00;10372611;28;20116;-78
2021/12/29 07:16:01;;;;;;;14.57;8.50;;;;;;;2.12;100.00;100707.53;10372533;28;20042;-77
2021/12/29 07:21:02;;;;;;;15.52;8.27;;;;;;;2.29;100.00;100732.59;10372220;28;20140;-78
2021/12/29 07:26:03;;;;;;;14.48;8.95;;;;;;;1.28;100.00;100563.97;10371122;28;20048;-79
2021/12/29 07:31:04;;;;;;;18.88;8.98;;;;;;;2.18;100.00;100695.78;10373262;28;20064;-79
2021/12/29 07:36:05;;;;;;;13.75;7.10;;;;;;;2.15;100.00;100683.72;10380119;28;20045;-77
2021/12/29 07:41:08;;;;;;;13.88;7.95;;;;;;;2.35;100.00;100728.72;10379072;28;20041;-79
2021/12/29 07:46:11;;;;;;;14.05;8.23;;;;;;;2.08;100.00;100682.50;10378759;28;20128;-79
2021/12/29 07:51:15;;;;;;;13.70;7.82;;;;;;;2.27;100.00;100710.88;10377701;28;20135;-78
2021/12/29 07:56:16;;;;;;;16.65;8.23;;;;;;;2.28;100.00;100709.97;10336621;28;20510;-78
2021/12/29 08:01:17;;;;;;;17.45;8.63;;;;;;;2.25;100.00;100707.56;10337174;28;20073;-78
2021/12/29 08:06:19;;;;;;;14.63;8.50;;;;;;;1.64;100.00;100592.03;10337522;28;20085;-78
2021/12/29 08:11:21;;;;;;;14.57;8.27;;;;;;;1.95;100.00;100610.91;10337363;28;20042;-78
2021/12/29 08:16:22;;;;;;;16.65;8.68;;;;;;;1.16;100.00;100487.13;10336516;28;20121;-78
2021/12/29 08:21:22;;;;;;;14.70;7.40;;;;;;;2.50;100.00;100697.03;10336708;28;20128;-78
2021/12/29 08:26:23;;;;;;;17.30;8.55;;;;;;;1.74;100.00;100572.16;10336130;28;20042;-78
2021/12/29 08:31:25;;;;;;;25.58;7.85;;;;;;;2.57;100.00;100686.94;10336275;28;20054;-78
2021/12/29 08:36:26;;;;;;;13.15;8.07;;;;;;;2.31;100.00;100652.06;10336518;28;20533;-79
2021/12/29 08:41:27;;;;;;;14.82;8.77;;;;;;;1.54;100.00;100494.97;10336420;28;20052;-79
2021/12/29 08:46:28;;;;;;;17.85;9.32;;;;;;;2.62;100.00;100669.09;10335552;28;20046;-79
2021/12/29 08:51:30;;;;;;;13.82;7.82;;;;;;;2.08;100.00;100572.41;10335782;28;20053;-78
2021/12/29 08:56:30;;;;;;;17.95;8.95;;;;;;;2.15;100.00;100567.59;10335702;28;20043;-78
2021/12/29 09:01:31;;;;;;;14.50;8.80;;;;;;;2.21;100.00;100595.97;10335270;28;20406;-78
2021/12/29 09:06:34;;;;;;;14.85;8.73;;;;;;;2.43;100.00;100583.03;10335840;28;20105;-78
2021/12/29 09:11:35;;;;;;;14.32;8.40;;;;;;;1.56;100.00;100432.88;10334488;28;20132;-78
2021/12/29 09:16:36;;;;;;;16.52;8.77;;;;;;;2.49;100.00;100552.91;10334105;28;20137;-78
2021/12/29 09:21:38;;;;;;;13.10;8.30;;;;;;;2.25;100.00;100503.91;10334114;28;20045;-78
2021/12/29 09:26:39;;;;;;;14.45;8.35;;;;;;;2.76;100.00;100585.97;10334906;28;20042;-78
2021/12/29 09:31:40;;;;;;;14.25;8.52;;;;;;;2.58;100.00;100554.88;10334283;28;20069;-79
2021/12/29 09:36:41;;;;;;;18.70;9.68;;;;;;;1.90;100.00;100427.00;10333459;28;20056;-78
2021/12/29 09:41:43;;;;;;;14.80;8.65;;;;;;;2.16;100.00;100446.94;10355856;28;20044;-76
2021/12/29 09:46:44;;;;;;;16.58;8.75;;;;;;;3.03;100.00;100593.59;10370319;28;20049;-79
2021/12/29 09:51:45;;;;;;;15.30;8.07;;;;;;;2.94;100.00;100602.97;10348203;28;20049;-79
2021/12/29 09:56:46;;;;;;;18.90;10.05;;;;;;;3.07;100.00;100632.59;10354577;28;20037;-79
2021/12/29 10:01:47;;;;;;;20.48;10.93;;;;;;;3.18;100.00;100631.84;10349718;28;20050;-79
2021/12/29 10:06:48;;;;;;;19.52;10.25;;;;;;;2.85;100.00;100572.16;10349508;28;20044;-79
2021/12/29 10:11:49;;;;;;;15.82;8.93;;;;;;;2.55;100.00;100549.84;10346453;28;20052;-79
2021/12/29 10:16:50;;;;;;;15.48;7.95;;;;;;;3.00;100.00;100622.69;10347109;28;20034;-79
2021/12/29 10:21:51;;;;;;;16.52;8.77;;;;;;;2.03;100.00;100456.59;10348085;28;20034;-79
2021/12/29 10:26:56;;;;;;;17.20;9.10;;;;;;;2.00;100.00;100451.59;10346628;28;20104;-78
2021/12/29 10:32:04;;;;;;;15.55;8.88;;;;;;;1.41;100.00;100321.41;10349093;28;20057;-78
2021/12/29 10:37:08;;;;;;;19.27;10.32;;;;;;;2.01;100.00;100411.38;10351303;28;20046;-78
2021/12/29 10:42:20;;;;;;;15.77;9.03;;;;;;;2.34;100.00;100476.22;10347784;28;20540;-79
2021/12/29 10:47:32;;;;;;;16.63;9.02;;;;;;;2.80;100.00;100508.69;10347893;28;20293;-78
2021/12/29 10:52:40;;;;;;;16.60;10.10;;;;;;;3.18;100.00;100603.78;10345509;28;20037;-78
2021/12/29 10:57:41;;;;;;;17.02;9.48;;;;;;;2.33;100.00;100485.00;10361466;28;20168;-79
2021/12/29 11:02:43;;;;;;;18.85;9.77;;;;;;;1.65;100.00;100371.16;10368627;28;20037;-79
2021/12/29 11:07:44;;;;;;;18.27;10.00;;;;;;;2.13;100.00;100468.13;10378503;28;20099;-79
2021/12/29 11:12:51;;;;;;;21.92;10.50;;;;;;;2.03;100.00;100456.59;10380405;28;20127;-78
2021/12/29 11:17:53;;;;;;;17.35;8.57;;;;;;;2.54;100.00;100518.47;10380796;28;20049;-78
2021/12/29 11:23:13;;;;;;;112.82;62.08;;;;;;;2.47;100.00;100529.41;10378425;28;20092;-79
2021/12/29 11:28:29;;;;;;;28.23;12.50;;;;;;;2.79;100.00;100581.31;10379450;28;20131;-79
2021/12/29 11:33:32;;;;;;;19.05;10.02;;;;;;;2.58;100.00;100541.75;10378054;28;20053;-79
2021/12/29 11:38:34;;;;;;;17.45;9.50;;;;;;;2.77;100.00;100583.22;10378653;28;20049;-79
2021/12/29 11:43:35;;;;;;;20.45;10.48;;;;;;;2.23;100.00;100476.16;10378376;28;20046;-79
2021/12/29 11:48:36;;;;;;;22.73;12.57;;;;;;;2.18;100.00;100484.31;10378473;28;20038;-79
2021/12/29 11:53:55;;;;;;;27.55;15.45;;;;;;;2.95;100.00;100599.41;10378594;28;20466;-79
2021/12/29 11:59:04;;;;;;;22.02;11.07;;;;;;;1.36;100.00;100347.88;10370252;28;20511;-80
2021/12/29 12:04:09;;;;;;;19.75;11.15;;;;;;;1.39;100.00;100377.41;10369762;28;20100;-80
2021/12/29 12:09:12;;;;;;;23.08;12.27;;;;;;;2.78;100.00;100620.78;10378141;28;20045;-80
2021/12/29 12:14:43;;;;;;;19.60;10.57;;;;;;;2.86;100.00;100631.56;10377543;28;20045;-80
2021/12/29 12:19:46;;;;;;;20.95;10.57;;;;;;;2.71;100.00;100615.13;10351042;28;20057;-80
2021/12/29 12:24:50;;;;;;;20.27;11.50;;;;;;;1.94;100.00;100494.78;10359554;28;20050;-80
2021/12/29 12:30:03;;;;;;;22.73;12.15;;;;;;;2.71;100.00;100629.09;10355767;28;20038;-80
2021/12/29 12:35:05;;;;;;;19.70;10.88;;;;;;;2.65;100.00;100626.91;10356648;28;20797;-80
2021/12/29 12:40:10;;;;;;;19.85;9.85;;;;;;;2.74;100.00;100647.22;10344777;28;20054;-80
2021/12/29 12:45:21;;;;;;;25.27;10.10;;;;;;;2.03;100.00;100519.50;10361098;28;20050;-79
2021/12/29 12:50:27;;;;;;;20.42;10.38;;;;;;;1.92;100.00;100519.44;10369560;28;20053;-76
2021/12/29 12:55:30;;;;;;;20.23;11.40;;;;;;;1.80;100.00;100524.59;10375079;28;20116;-80
2021/12/29 13:00:31;;;;;;;18.15;10.02;;;;;;;1.67;100.00;100510.66;10349305;28;20414;-75
2021/12/29 13:05:38;;;;;;;26.17;12.07;;;;;;;1.95;100.00;100567.22;10398124;28;20052;-74
2021/12/29 13:10:45;;;;;;;23.02;11.68;;;;;;;2.62;100.00;100670.88;10364245;28;20049;-85
2021/12/29 13:15:54;;;;;;;19.88;11.48;;;;;;;2.36;100.00;100620.28;10369424;28;20124;-81
2021/12/29 13:21:24;;;;;;;22.23;11.13;;;;;;;1.76;100.00;100522.28;10382393;28;20041;-81
2021/12/29 13:26:31;;;;;;;23.17;11.15;;;;;;;2.37;100.00;100632.47;10356463;28;20045;-83
2021/12/29 13:31:32;;;;;;;23.30;10.80;;;;;;;1.72;100.00;100523.44;10374005;28;20137;-82
2021/12/29 13:36:32;;;;;;;20.88;11.07;;;;;;;2.51;100.00;100655.91;10375897;28;20402;-90
2021/12/29 13:41:36;;;;;;;22.52;11.25;;;;;;;2.06;100.00;100616.22;10366167;28;20037;-89
2021/12/29 13:46:40;;;;;;;20.20;10.70;;;;;;;2.34;100.00;100658.88;10376597;28;20501;-80
2021/12/29 13:51:44;;;;;;;26.63;11.43;;;;;;;2.24;100.00;100654.28;10384880;28;20494;-80
2021/12/29 13:56:48;;;;;;;21.20;11.52;;;;;;;2.39;100.00;100682.97;10422636;28;20049;-79
2021/12/29 14:01:53;;;;;;;27.55;12.07;;;;;;;2.39;100.00;100694.31;10434160;28;20045;-76
2021/12/29 14:07:00;;;;;;;31.70;11.90;;;;;;;2.39;100.00;100698.72;10408297;28;20057;-74
2021/12/29 14:12:06;;;;;;;31.92;11.60;;;;;;;1.56;100.00;100557.72;10424485;28;21146;-77
2021/12/29 14:17:18;;;;;;;20.83;10.80;;;;;;;2.27;100.00;100658.47;10326621;28;20048;-73
2021/12/29 14:22:26;;;;;;;29.63;12.18;;;;;;;2.48;100.00;100682.34;10404947;28;20509;-83
2021/12/29 14:27:29;;;;;;;37.08;13.25;;;;;;;2.33;100.00;100670.31;10413288;28;20080;-84
2021/12/29 14:32:30;;;;;;;58.30;13.10;;;;;;;2.08;100.00;100637.09;10412494;28;20053;-80
2021/12/29 14:37:31;;;;;;;31.25;11.73;;;;;;;2.16;100.00;100648.72;10410596;28;20136;-81
2021/12/29 14:42:37;;;;;;;35.75;13.70;;;;;;;1.13;100.00;100498.63;10438545;28;20148;-80
2021/12/29 14:47:38;;;;;;;46.40;14.32;;;;;;;1.82;100.00;100601.28;10455346;28;20048;-80
2021/12/29 14:52:45;;;;;;;28.13;13.02;;;;;;;1.96;100.00;100609.97;10452151;28;20515;-79
2021/12/29 14:57:47;;;;;;;31.52;13.65;;;;;;;2.31;100.00;100691.41;10409565;28;20042;-79
2021/12/29 15:02:51;;;;;;;24.45;11.48;;;;;;;1.18;100.00;100506.19;10410319;28;20049;-79
2021/12/29 15:07:54;;;;;;;47.60;13.67;;;;;;;2.03;100.00;100646.13;10406476;28;20120;-78
2021/12/29 15:12:56;;;;;;;26.33;13.43;;;;;;;1.38;100.00;100544.09;10412532;28;20095;-79
2021/12/29 15:18:03;;;;;;;27.67;12.48;;;;;;;2.24;100.00;100685.75;10412812;28;20088;-78
2021/12/29 15:23:07;;;;;;;52.90;14.60;;;;;;;2.17;100.00;100689.72;10411877;28;20046;-79
2021/12/29 15:28:12;;;;;;;26.93;12.47;;;;;;;2.05;100.00;100661.72;10411086;28;20394;-78
2021/12/29 15:33:14;;;;;;;33.65;14.15;;;;;;;2.14;100.00;100689.94;10411669;28;20057;-78
2021/12/29 15:38:16;;;;;;;36.63;14.77;;;;;;;2.12;100.00;100707.53;10412797;28;20552;-78
2021/12/29 15:43:18;;;;;;;32.08;11.90;;;;;;;1.30;100.00;100557.69;10412582;28;20044;-78
2021/12/29 15:48:18;;;;;;;27.60;14.02;;;;;;;1.86;100.00;100649.06;10411083;28;20115;-72
2021/12/29 15:53:20;;;;;;;29.80;15.38;;;;;;;1.89;100.00;100654.09;10411483;28;20045;-76
2021/12/29 15:58:22;;;;;;;31.23;16.05;;;;;;;1.93;100.00;100662.56;10412105;28;20056;-76
2021/12/29 16:03:23;;;;;;;31.00;14.15;;;;;;;1.91;100.00;100667.91;10416288;28;20064;-74
2021/12/29 16:08:23;;;;;;;25.20;12.15;;;;;;;2.21;100.00;100716.56;10417578;28;20037;-78
2021/12/29 16:13:24;;;;;;;26.50;13.73;;;;;;;1.59;100.00;100615.13;10415200;28;20491;-77
2021/12/29 16:18:25;;;;;;;26.80;13.98;;;;;;;1.70;100.00;100630.91;10387314;28;20037;-75
2021/12/29 16:23:26;;;;;;;27.83;13.98;;;;;;;1.97;100.00;100682.38;10404621;28;20060;-75
2021/12/29 16:28:29;;;;;;;26.45;14.02;;;;;;;1.61;100.00;100618.44;10406671;28;20170;-78
2021/12/29 16:33:30;;;;;;;27.45;14.85;;;;;;;1.99;100.00;100678.72;10412156;28;20049;-74
2021/12/29 16:38:31;;;;;;;23.50;13.35;;;;;;;1.08;100.00;100524.28;10413670;28;20068;-75
2021/12/29 16:43:33;;;;;;;26.90;13.57;;;;;;;0.61;100.00;100451.59;10425095;28;20546;-75
2021/12/29 16:48:34;;;;;;;28.27;15.60;;;;;;;1.44;100.00;100588.19;10397733;28;20045;-78
2021/12/29 16:53:36;;;;;;;28.45;16.20;;;;;;;2.25;100.00;100715.41;10396724;28;20212;-78
2021/12/29 16:58:38;;;;;;;26.75;14.15;;;;;;;1.29;100.00;100563.88;10375622;28;20042;-78
2021/12/29 17:03:39;;;;;;;25.25;13.82;;;;;;;2.15;100.00;100706.50;10375534;28;20049;-78
2021/12/29 17:08:40;;;;;;;24.75;13.20;;;;;;;1.46;100.00;100598.53;10375795;28;20401;-78
2021/12/29 17:13:41;;;;;;;26.98;15.25;;;;;;;2.02;100.00;100685.53;10375424;28;20128;-78
2021/12/29 17:18:42;;;;;;;23.45;14.02;;;;;;;2.22;100.00;100702.53;10406852;28;20497;-76
2021/12/29 17:23:43;;;;;;;24.77;13.43;;;;;;;1.75;100.00;100610.50;10415476;28;20425;-78
2021/12/29 17:28:44;;;;;;;26.25;14.63;;;;;;;2.25;100.00;100705.75;10415753;28;20492;-79
2021/12/29 17:33:45;;;;;;;46.17;14.43;;;;;;;1.59;100.00;100602.03;10415900;28;20470;-78
2021/12/29 17:38:45;;;;;;;28.90;13.93;;;;;;;2.22;100.00;100700.72;10414866;28;20468;-78
2021/12/29 17:43:47;;;;;;;25.98;13.70;;;;;;;2.22;100.00;100697.28;10413178;28;20049;-79
2021/12/29 17:48:47;;;;;;;28.30;13.02;;;;;;;1.71;100.00;100609.03;10414696;28;20462;-78
2021/12/29 17:53:49;;;;;;;30.70;13.55;;;;;;;1.67;100.00;100607.56;10432940;28;20119;-78
2021/12/29 17:58:50;;;;;;;24.25;13.48;;;;;;;2.02;100.00;100669.81;10456435;28;20481;-78
2021/12/29 18:03:51;;;;;;;23.17;12.65;;;;;;;2.07;100.00;100670.34;10455385;28;20037;-78
2021/12/29 18:08:52;;;;;;;24.63;12.88;;;;;;;1.82;100.00;100639.72;10394840;28;20049;-79
2021/12/29 18:13:53;;;;;;;21.42;11.70;;;;;;;2.16;100.00;100688.06;10403019;28;20099;-78
2021/12/29 18:18:54;;;;;;;21.55;11.68;;;;;;;1.45;100.00;100560.22;10413427;28;20460;-78
2021/12/29 18:23:55;;;;;;;23.58;12.32;;;;;;;2.07;100.00;100664.25;10410839;28;20490;-78
2021/12/29 18:28:56;;;;;;;19.98;11.63;;;;;;;1.93;100.00;100631.13;10372373;28;20042;-78
2021/12/29 18:33:58;;;;;;;20.05;11.93;;;;;;;2.28;100.00;100695.06;10372297;28;20145;-78
2021/12/29 18:39:00;;;;;;;16.70;10.88;;;;;;;1.78;100.00;100597.19;10372282;28;20054;-79
2021/12/29 18:44:01;;;;;;;18.05;10.73;;;;;;;2.14;100.00;100655.84;10372749;28;20525;-78
2021/12/29 18:49:03;;;;;;;20.38;12.00;;;;;;;2.38;100.00;100681.31;10406737;28;20044;-78
2021/12/29 18:54:04;;;;;;;18.55;10.65;;;;;;;2.40;100.00;100668.94;10447202;28;20140;-79
2021/12/29 18:59:05;;;;;;;17.70;10.35;;;;;;;2.24;100.00;100664.78;10453192;28;20123;-78
2021/12/29 19:04:06;;;;;;;17.63;9.82;;;;;;;2.17;100.00;100647.78;10453236;28;20055;-78
2021/12/29 19:09:07;;;;;;;18.08;10.90;;;;;;;1.71;100.00;100587.25;10391422;28;20037;-78
2021/12/29 19:14:07;;;;;;;17.73;9.27;;;;;;;2.33;100.00;100670.31;10394720;28;20046;-85
2021/12/29 19:23:31;;;;;;;14.27;7.88;;;;;;;1.60;100.00;100564.41;10490039;27;20983;-74
2021/12/29 19:28:32;;;;;;;17.08;9.73;;;;;;;1.67;100.00;100564.81;10490472;28;20040;-73
2021/12/29 19:33:33;;;;;;;15.90;9.43;;;;;;;1.33;100.00;100509.53;10451820;28;20049;-72
2021/12/29 19:38:34;;;;;;;19.52;10.32;;;;;;;1.63;100.00;100574.66;10448219;28;20094;-83
2021/12/29 19:43:40;;;;;;;19.00;10.05;;;;;;;1.50;100.00;100553.72;10426716;28;21090;-76
2021/12/29 19:48:45;;;;;;;24.67;10.70;;;;;;;2.20;100.00;100697.38;10440641;28;20060;-77
2021/12/29 19:53:46;;;;;;;16.52;10.15;;;;;;;2.02;100.00;100659.31;10474366;28;20043;-77
2021/12/29 19:58:46;;;;;;;19.88;10.98;;;;;;;2.12;100.00;100654.28;10504561;28;20041;-77
2021/12/29 20:03:47;;;;;;;21.58;9.75;;;;;;;1.31;100.00;100532.34;10488247;28;20033;-78
2021/12/29 20:08:48;;;;;;;40.55;10.27;;;;;;;2.17;100.00;100689.72;10462297;28;20055;-77
2021/12/29 20:13:50;;;;;;;22.58;9.88;;;;;;;2.07;100.00;100656.41;10447041;28;20140;-77
2021/12/29 20:18:51;;;;;;;16.13;9.25;;;;;;;1.94;100.00;100651.13;10446801;28;20104;-77
2021/12/29 20:23:52;;;;;;;14.10;9.02;;;;;;;1.98;100.00;100652.63;10446246;28;20509;-77
2021/12/29 20:28:53;;;;;;;11.82;7.75;;;;;;;1.98;100.00;100645.59;10461784;28;20124;-77
2021/12/29 20:33:54;;;;;;;13.27;8.38;;;;;;;0.43;100.00;100373.47;10424557;28;20120;-77
2021/12/29 20:38:56;;;;;;;15.38;8.88;;;;;;;1.00;100.00;100465.56;10418143;28;20055;-77
2021/12/29 20:43:57;;;;;;;13.85;8.68;;;;;;;2.18;100.00;100667.78;10418744;28;20034;-77
2021/12/29 20:49:01;;;;;;;17.75;9.50;;;;;;;1.19;100.00;100480.84;10418032;28;20053;-78
2021/12/29 20:54:03;;;;;;;16.20;9.68;;;;;;;2.00;100.00;100645.47;10417665;28;20124;-77
2021/12/29 20:59:04;;;;;;;44.50;10.38;;;;;;;2.11;100.00;100653.44;10418613;28;20046;-77
2021/12/29 21:04:05;;;;;;;18.92;9.30;;;;;;;2.20;100.00;100663.28;10417713;28;20040;-77
2021/12/29 21:09:06;;;;;;;15.65;9.43;;;;;;;2.13;100.00;100662.06;10415814;28;20042;-77
2021/12/29 21:14:07;;;;;;;27.13;11.00;;;;;;;2.00;100.00;100645.47;10417405;28;20045;-78
2021/12/29 21:19:09;;;;;;;26.65;11.05;;;;;;;1.62;100.00;100582.66;10417552;28;20057;-77
2021/12/29 21:24:12;;;;;;;26.30;11.07;;;;;;;1.62;100.00;100582.66;10416430;28;20132;-77
2021/12/29 21:29:12;;;;;;;16.55;11.10;;;;;;;1.24;100.00;100516.22;10417509;28;20033;-78
2021/12/29 21:34:13;;;;;;;16.38;10.80;;;;;;;1.68;100.00;100587.47;10416322;28;20048;-77
2021/12/29 21:39:14;;;;;;;16.25;9.98;;;;;;;1.68;100.00;100585.69;10416597;28;20069;-78
2021/12/29 21:44:15;;;;;;;15.65;10.30;;;;;;;2.04;100.00;100646.97;10415091;28;20532;-77
2021/12/29 21:49:16;;;;;;;16.25;10.07;;;;;;;1.62;100.00;100578.25;10414986;28;20033;-77
2021/12/29 21:54:17;;;;;;;16.88;10.27;;;;;;;1.73;100.00;100596.66;10415820;28;20409;-77
2021/12/29 21:59:18;;;;;;;16.73;10.30;;;;;;;1.68;100.00;100577.00;10415403;28;20485;-78
2021/12/29 22:04:19;;;;;;;16.13;10.52;;;;;;;1.99;100.00;100625.47;10416647;28;20045;-77
2021/12/29 22:09:20;;;;;;;14.43;9.82;;;;;;;2.10;100.00;100638.69;10414790;28;20069;-77
2021/12/29 22:14:21;;;;;;;15.20;10.35;;;;;;;1.82;100.00;100601.28;10414471;28;20046;-77
2021/12/29 22:19:22;;;;;;;15.07;9.18;;;;;;;1.01;100.00;100468.06;10413091;28;20061;-78
2021/12/29 22:24:23;;;;;;;20.63;10.35;;;;;;;1.22;100.00;100498.97;10413707;28;20045;-77
2021/12/29 22:29:25;;;;;;;14.55;9.52;;;;;;;1.21;100.00;100505.97;10414009;28;20073;-77
2021/12/29 22:34:27;;;;;;;15.10;9.18;;;;;;;2.02;100.00;100623.47;10414366;28;20538;-78
2021/12/29 22:39:27;;;;;;;12.77;8.35;;;;;;;1.93;100.00;100605.78;10414778;28;20404;-77
2021/12/29 22:44:28;;;;;;;17.20;10.48;;;;;;;1.98;100.00;100648.22;10413632;28;20045;-77
2021/12/29 22:49:29;;;;;;;14.60;9.38;;;;;;;1.42;100.00;100555.19;10413906;28;20149;-77
2021/12/29 22:54:30;;;;;;;14.27;9.43;;;;;;;2.12;100.00;100660.34;10414169;28;20037;-77
2021/12/29 22:59:32;;;;;;;17.75;9.95;;;;;;;1.03;100.00;100481.88;10412848;28;20041;-77
2021/12/29 23:04:33;;;;;;;17.77;10.45;;;;;;;2.15;100.00;100665.38;10413054;28;20068;-78
2021/12/29 23:09:35;;;;;;;17.60;10.18;;;;;;;1.90;100.00;100613.00;10412988;28;20048;-78